Terminal Aerodrome Forecast
Issued by NWS Binghamton, NY

Current Version | Previous Version | Text Only | Print | Product List | Glossary On
Versions: 1 2 3 4 5 6 7 8 9 10 11 12 13 14 15 16 17 18 19 20 21 22 23 24 25
661
FTUS41 KBGM 120531
TAFSYR
TAF
KSYR 120531Z 1206/1306 31005KT 3SM -SHSN OVC025
      TEMPO 1206/1209 3/4SM -SN VV009
     FM120900 27009KT P6SM BKN035
     FM121200 24007KT P6SM OVC040
     FM121800 20012KT P6SM BKN050
     FM130300 26013KT P6SM BKN050
      TEMPO 1303/1306 3SM -SHSN OVC025=

USA.gov is the U.S. government's official web portal to all federal, state and local government web resources and services.